Portada
METAR-TAF:

METAR-TAF

Aeroports :

Zanjan, Iran

latitud: 36-41N, longitud: 048-29E, altitud: 1663 m

Observació

L'informe es va fer fa 1 hora i 2 minuts, a les 13:00 UTC
Vent 6 kt del Oest/Nord-Oest
Temperatura 0°C
Humitat 93%
Pressió 1020 hPa
Visibilitat: 8000 m
Escasses núvols a una alçada de 1000 ft
Núvols disperses a una alçada de 3000 ft
Cel ennuvolat a una alçada de 8000 ft

METAR: OITZ 191300Z 29006KT 8000 FEW010 SCT030 BKN080 00/M01 Q1020

Hora: 17:32 (14:02 UTC)


TAF: manca

Observacions i pronòstics meteorològics de més de 4000 aeroports (METAR i TAF).

Les estacions disponibles són els punts grocs i vermells al mapa.

Posi el ratolí al punt desitjat per veure el nom de l'estació.

Feu clic per veure les observacions i els pronòstics meteorològics.

Per canviar el mapa: feu clic els botons verds amb una creu de color negre per apropar; al botó verd amb un guió per allunyar la imatge; o en les fletxes verdes per a mapes adjacents.


METAR-TAF: